Pea Ridge, AR (72751)

7:47 PM CDT on August 29, 2015 (GMT -0500)
Avoca | | Change Station
CLOSE
Current Station
Personal Weather Station
Location: Rogers, AR
Elevation: 1348 ft
Nearby Weather Stations

Elev 1348 ft 36.41 °N, 94.07 °W | Updated 8 minutes ago

Mostly Cloudy
Mostly Cloudy
79.3 °F
Feels Like 83 °F
N
2.2
Wind Variable Wind from SE

Today
High -- | Low -- °F
--% Chance of Precip.
Yesterday
High -- | Low -- °F
Precip. -- in
6:45 AM 7:48 PM
Full, 100% visible
Pressure 29.95 in
Visibility 10.0 miles
Clouds Mostly Cloudy 4100 ft
Mostly Cloudy 9000 ft
Heat Index 83 °F
Dew Point 72 °F
Humidity 78%
Rainfall 0.00 in
Snow Depth Not available.
UV 0 out of 12
Pollen 9.60 out of 12
Air Quality Not available.
Flu Activity Not available.
METAR KROG 292357Z AUTO 19012KT 10SM BKN041 BKN090 28/21 A2999 RMK AO2 SLP140 T02780206 10306 20278 56003 TSNO $
Pressure 29.95 in
Visibility 10.0 miles
Clouds Mostly Cloudy 4100 ft
Mostly Cloudy 9000 ft
Heat Index 83 °F
Dew Point 72 °F
Humidity 78%
Rainfall 0.00 in
Snow Depth Not available.
UV 0 out of 12
Pollen 9.60 out of 12
Air Quality Not available.
Flu Activity Not available.
METAR KROG 292357Z AUTO 19012KT 10SM BKN041 BKN090 28/21 A2999 RMK AO2 SLP140 T02780206 10306 20278 56003 TSNO $
Nowcast | as of 6:52 PM CDT on August 29, 2015

At 6:52 PM...National Weather Service Doppler radars detected a line of isolated showers developing across northeast Oklahoma and into northwest Arkansas...mainly along a line from Okemah to Bentonville. All this activity was mainly stationary...with slight movement toward the northeast. Through 8:00 PM...isolated showers and perhaps a thunderstorm will remain possible...mainly across northeast Oklahoma and northwest Arkansas. Light to moderate rainfall can be expected...with less than a tenth of an inch per hour. No severe weather is anticipated.

×

10-Day Weather Forecast

×

Almanac

Astronomy

Aug. 29, 2015 Rise Set
Actual Time
Civil Twilight
Nautical Twilight
Astronomical Twilight
Moon
Length of Visible Light
Length of Day
Tomorrow will be .
, % of the Moon is Illuminated

Today's Extremes

State Highs State Lows

Community

WunderPhotos

Upload Photos

1,850,813 photos uploaded!

WunderBlogs® & News

Nearby

Air Quality

  Air Quality AQ Index Pollutant
Not available.

Snow Depth

Station Depth Elevation

Earthquake Activity

City Distance Mag. Time & Date
Minimum magnitude displayed is 2.5.

Coastal Water Temperatures

Place Temperature

Stations

Nearby Weather Stations

Station Location Temp. Windchill Dew Point Humidity Wind Precip. Elev Updated Type